Aérodrome :
LOGIN :

S'inscrire | Disclaimer

   EN    FR    IT 

 










Légende :    VFR   VFR Marginal   IFR   IFR Intensif   IFR Très Intensif
Visi : 
Plafond : 
>= 8 km
>= 3000ft
5 à 8 km
1000 à 3000 ft
1500m à 5 km
500 à 1000 ft
800 à 1500m
200 à 500 ft
< 800m
< 200 ft
Symboles :   Orages  Brouillard  Fortes neiges  Fortes précipitations  Vent > 20 kt
SIGMETs :   Divers  Orages  Givrage  Turbulence  Onde Orograph.  Cendres Volcan.







- Altitude de l'aérodrome : 1300 ft
- Code IATA : LIG
- Voir les cartes d'approche


LFBL - Limoges

DERNIER METAR :
  • 220000Z AUTO 25011KT 6000 -DZ OVC003 09/09 Q1021 TEMPO 3000

METARs EXPIRÉS :
  • 212330Z AUTO 25011KT 9999 -DZ OVC004 09/09 Q1021 TEMPO 3000
  • 212300Z AUTO 26012KT 220V280 6000 OVC003 09/09 Q1021 TEMPO 1500 RADZ
  • 212230Z AUTO 26012KT 6000 -DZ OVC004 09/09 Q1021 TEMPO 1500 RADZ
  • 212200Z AUTO 25012KT 200V270 9000 DZ OVC004 09/09 Q1021 TEMPO 1500 RADZ
  • 212130Z AUTO 27013KT 240V300 6000 -RADZ BKN005 OVC009 09/09 Q1022 TEMPO 1500 RADZ

TAF TAF LFBL
Valide du 22 à 00h jusqu'au 23 à 00h UTC


212300Z 2200/2224 26014KT 6000 -RADZ OVC006
TEMPO 2200/2211 3000 OVC003
BECMG 2209/2211 26022G35KT
BECMG 2211/2213 BKN012
BECMG 2215/2217 30012KT
BECMG 2217/2219 OVC007
PROB40 2220/2224 OVC003
ATIS : +33 5 55 48 40 37
Pas de NOTAMs connus pour ce terrain.
1 SIGMET publié pour la FIR Bordeaux (LFBB) :
 
Turbulence forte
LFBB SIGMET 7 VALID 220000/220400 LFPW
LFBB BORDEAUX FIR/UIR SEV TURB FCST WI N4600 E00300 - N4215 E00230 - N4230 E00115 - N4415 E00230 - N4615 E00245 - N4600 E00300 SFC/FL080 STNR NC=



MET'MAP, la Météo Aéronautique d'un coup d'oeil ! - Copyright ORBIFLY Décembre 2007 - Disclaimer

ORBIFLY MET'MAP TEAM :

Programmation & Développement : Alexandra Zaïnal
Conception & Développement : Baudouin d'Aumeries
Co-Programmation & Développement : Marc-Olivier Méhu
Soutien technique & logistique : Manuel Goepfert

Contact : metmap@orbifly.com




SOURCES & CREDITS :

   NOAA